sensor_id;sensor_type;location;lat;lon;timestamp;pressure;altitude;pressure_sealevel;temperature;humidity
19748;BME280;10032;51.386;12.516;2022-08-14T00:01:13;100050.44;;;20.09;100.00
19748;BME280;10032;51.386;12.516;2022-08-14T00:03:39;100054.91;;;20.05;100.00
19748;BME280;10032;51.386;12.516;2022-08-14T00:06:05;100052.97;;;20.06;100.00
19748;BME280;10032;51.386;12.516;2022-08-14T00:08:30;100042.59;;;20.03;100.00
19748;BME280;10032;51.386;12.516;2022-08-14T00:10:56;100050.00;;;20.02;100.00
19748;BME280;10032;51.386;12.516;2022-08-14T00:13:24;100047.09;;;19.99;100.00
19748;BME280;10032;51.386;12.516;2022-08-14T00:15:55;100044.63;;;19.97;100.00
19748;BME280;10032;51.386;12.516;2022-08-14T00:18:23;100045.28;;;19.94;100.00
19748;BME280;10032;51.386;12.516;2022-08-14T00:20:49;100049.78;;;19.90;100.00
19748;BME280;10032;51.386;12.516;2022-08-14T00:23:16;100049.59;;;19.87;100.00
19748;BME280;10032;51.386;12.516;2022-08-14T00:25:43;100056.53;;;19.84;100.00
19748;BME280;10032;51.386;12.516;2022-08-14T00:28:11;100053.28;;;19.82;100.00
19748;BME280;10032;51.386;12.516;2022-08-14T00:30:37;100045.66;;;19.79;100.00
19748;BME280;10032;51.386;12.516;2022-08-14T00:33:03;100049.03;;;19.76;100.00
19748;BME280;10032;51.386;12.516;2022-08-14T00:35:29;100041.09;;;19.75;100.00
19748;BME280;10032;51.386;12.516;2022-08-14T00:37:55;100042.34;;;19.69;100.00
19748;BME280;10032;51.386;12.516;2022-08-14T00:40:20;100050.91;;;19.67;100.00
19748;BME280;10032;51.386;12.516;2022-08-14T00:42:46;100054.78;;;19.66;100.00
19748;BME280;10032;51.386;12.516;2022-08-14T00:45:13;100055.72;;;19.62;100.00
19748;BME280;10032;51.386;12.516;2022-08-14T00:47:41;100051.94;;;19.58;100.00
19748;BME280;10032;51.386;12.516;2022-08-14T00:50:08;100055.34;;;19.55;100.00
19748;BME280;10032;51.386;12.516;2022-08-14T00:52:34;100052.59;;;19.55;100.00
19748;BME280;10032;51.386;12.516;2022-08-14T00:55:00;100051.75;;;19.54;100.00
19748;BME280;10032;51.386;12.516;2022-08-14T00:57:29;100047.09;;;19.55;100.00
19748;BME280;10032;51.386;12.516;2022-08-14T00:59:56;100048.53;;;19.52;100.00
19748;BME280;10032;51.386;12.516;2022-08-14T01:02:23;100041.22;;;19.48;100.00
19748;BME280;10032;51.386;12.516;2022-08-14T01:04:51;100044.09;;;19.43;100.00
19748;BME280;10032;51.386;12.516;2022-08-14T01:07:18;100047.94;;;19.42;100.00
19748;BME280;10032;51.386;12.516;2022-08-14T01:09:56;100043.88;;;19.39;100.00
19748;BME280;10032;51.386;12.516;2022-08-14T01:12:24;100037.06;;;19.37;100.00
19748;BME280;10032;51.386;12.516;2022-08-14T01:14:50;100037.38;;;19.35;100.00
19748;BME280;10032;51.386;12.516;2022-08-14T01:17:17;100037.69;;;19.34;100.00
19748;BME280;10032;51.386;12.516;2022-08-14T01:19:43;100038.00;;;19.32;100.00
19748;BME280;10032;51.386;12.516;2022-08-14T01:22:26;100034.75;;;19.30;100.00
19748;BME280;10032;51.386;12.516;2022-08-14T01:24:52;100033.72;;;19.26;100.00
19748;BME280;10032;51.386;12.516;2022-08-14T01:27:20;100034.88;;;19.25;100.00
19748;BME280;10032;51.386;12.516;2022-08-14T01:29:47;100036.19;;;19.28;100.00
19748;BME280;10032;51.386;12.516;2022-08-14T01:32:13;100035.34;;;19.27;100.00
19748;BME280;10032;51.386;12.516;2022-08-14T01:34:38;100027.41;;;19.26;100.00
19748;BME280;10032;51.386;12.516;2022-08-14T01:37:04;100033.53;;;19.23;100.00
19748;BME280;10032;51.386;12.516;2022-08-14T01:39:30;100036.28;;;19.23;100.00
19748;BME280;10032;51.386;12.516;2022-08-14T01:41:56;100027.81;;;19.19;100.00
19748;BME280;10032;51.386;12.516;2022-08-14T01:44:26;100033.94;;;19.16;100.00
19748;BME280;10032;51.386;12.516;2022-08-14T01:46:57;100034.56;;;19.13;100.00
19748;BME280;10032;51.386;12.516;2022-08-14T01:49:23;100022.56;;;19.09;100.00
19748;BME280;10032;51.386;12.516;2022-08-14T01:51:48;100028.66;;;19.06;100.00
19748;BME280;10032;51.386;12.516;2022-08-14T01:54:18;100024.88;;;19.02;100.00
19748;BME280;10032;51.386;12.516;2022-08-14T01:56:46;100024.41;;;19.00;100.00
19748;BME280;10032;51.386;12.516;2022-08-14T02:01:50;100011.78;;;18.99;100.00
19748;BME280;10032;51.386;12.516;2022-08-14T02:04:17;100016.47;;;18.99;100.00
19748;BME280;10032;51.386;12.516;2022-08-14T02:06:45;100011.59;;;18.96;100.00
19748;BME280;10032;51.386;12.516;2022-08-14T02:09:11;100014.66;;;18.94;100.00
19748;BME280;10032;51.386;12.516;2022-08-14T02:11:36;100007.84;;;18.92;100.00
19748;BME280;10032;51.386;12.516;2022-08-14T02:14:06;100003.78;;;18.89;100.00
19748;BME280;10032;51.386;12.516;2022-08-14T02:16:52;99998.38;;;18.84;100.00
19748;BME280;10032;51.386;12.516;2022-08-14T02:19:20;99999.00;;;18.81;100.00
19748;BME280;10032;51.386;12.516;2022-08-14T02:21:47;99992.50;;;18.77;100.00
19748;BME280;10032;51.386;12.516;2022-08-14T02:24:14;100003.78;;;18.76;100.00
19748;BME280;10032;51.386;12.516;2022-08-14T02:26:42;99998.09;;;18.72;100.00
19748;BME280;10032;51.386;12.516;2022-08-14T02:29:17;99989.88;;;18.72;100.00
19748;BME280;10032;51.386;12.516;2022-08-14T02:31:45;99995.34;;;18.72;100.00
19748;BME280;10032;51.386;12.516;2022-08-14T02:34:25;99985.16;;;18.73;100.00
19748;BME280;10032;51.386;12.516;2022-08-14T02:37:01;99987.13;;;18.72;100.00
19748;BME280;10032;51.386;12.516;2022-08-14T02:39:28;99989.88;;;18.72;100.00
19748;BME280;10032;51.386;12.516;2022-08-14T02:41:54;99987.44;;;18.71;100.00
19748;BME280;10032;51.386;12.516;2022-08-14T02:44:19;99991.59;;;18.68;100.00
19748;BME280;10032;51.386;12.516;2022-08-14T02:46:48;100002.56;;;18.68;100.00
19748;BME280;10032;51.386;12.516;2022-08-14T02:49:13;99994.63;;;18.67;100.00
19748;BME280;10032;51.386;12.516;2022-08-14T02:51:39;99997.69;;;18.65;100.00
19748;BME280;10032;51.386;12.516;2022-08-14T02:54:07;99992.53;;;18.64;100.00
19748;BME280;10032;51.386;12.516;2022-08-14T02:56:33;100002.06;;;18.66;100.00
19748;BME280;10032;51.386;12.516;2022-08-14T02:59:03;99996.59;;;18.66;100.00
19748;BME280;10032;51.386;12.516;2022-08-14T03:01:29;99999.63;;;18.65;100.00
19748;BME280;10032;51.386;12.516;2022-08-14T03:03:55;99998.31;;;18.62;100.00
19748;BME280;10032;51.386;12.516;2022-08-14T03:06:20;99996.69;;;18.61;100.00
19748;BME280;10032;51.386;12.516;2022-08-14T03:08:48;99993.75;;;18.58;100.00
19748;BME280;10032;51.386;12.516;2022-08-14T03:11:14;99993.41;;;18.59;100.00
19748;BME280;10032;51.386;12.516;2022-08-14T03:13:45;99980.31;;;18.56;100.00
19748;BME280;10032;51.386;12.516;2022-08-14T03:16:13;99981.94;;;18.57;100.00
19748;BME280;10032;51.386;12.516;2022-08-14T03:18:41;99993.53;;;18.54;100.00
19748;BME280;10032;51.386;12.516;2022-08-14T03:21:09;99993.75;;;18.58;100.00
19748;BME280;10032;51.386;12.516;2022-08-14T03:23:38;99992.63;;;18.59;100.00
19748;BME280;10032;51.386;12.516;2022-08-14T03:26:08;99984.41;;;18.59;100.00
19748;BME280;10032;51.386;12.516;2022-08-14T03:28:34;99990.69;;;18.59;100.00
19748;BME280;10032;51.386;12.516;2022-08-14T03:30:59;99995.88;;;18.61;100.00
19748;BME280;10032;51.386;12.516;2022-08-14T03:33:25;99986.22;;;18.63;100.00
19748;BME280;10032;51.386;12.516;2022-08-14T03:35:52;99989.25;;;18.62;100.00
19748;BME280;10032;51.386;12.516;2022-08-14T03:38:17;99980.72;;;18.63;100.00
19748;BME280;10032;51.386;12.516;2022-08-14T03:40:44;99975.22;;;18.63;100.00
19748;BME280;10032;51.386;12.516;2022-08-14T03:43:11;99978.47;;;18.65;100.00
19748;BME280;10032;51.386;12.516;2022-08-14T03:45:38;99970.22;;;18.65;100.00
19748;BME280;10032;51.386;12.516;2022-08-14T03:48:16;99963.66;;;18.66;100.00
19748;BME280;10032;51.386;12.516;2022-08-14T03:50:45;99964.16;;;18.68;100.00
19748;BME280;10032;51.386;12.516;2022-08-14T03:53:12;99956.75;;;18.69;100.00
19748;BME280;10032;51.386;12.516;2022-08-14T03:55:38;99959.16;;;18.70;100.00
19748;BME280;10032;51.386;12.516;2022-08-14T03:58:07;99953.66;;;18.70;100.00
19748;BME280;10032;51.386;12.516;2022-08-14T04:00:34;99947.88;;;18.72;100.00
19748;BME280;10032;51.386;12.516;2022-08-14T04:03:02;99946.13;;;18.76;100.00
19748;BME280;10032;51.386;12.516;2022-08-14T04:05:28;99943.09;;;18.77;100.00
19748;BME280;10032;51.386;12.516;2022-08-14T04:07:54;99945.84;;;18.77;100.00
19748;BME280;10032;51.386;12.516;2022-08-14T04:10:19;99948.59;;;18.77;100.00
19748;BME280;10032;51.386;12.516;2022-08-14T04:12:46;99951.34;;;18.77;100.00
19748;BME280;10032;51.386;12.516;2022-08-14T04:15:11;99952.66;;;18.80;100.00
19748;BME280;10032;51.386;12.516;2022-08-14T04:17:38;99966.88;;;18.82;100.00
19748;BME280;10032;51.386;12.516;2022-08-14T04:20:07;99961.38;;;18.82;100.00
19748;BME280;10032;51.386;12.516;2022-08-14T04:22:34;99952.84;;;18.83;100.00
19748;BME280;10032;51.386;12.516;2022-08-14T04:25:01;99963.19;;;18.86;100.00
19748;BME280;10032;51.386;12.516;2022-08-14T04:27:27;99958.22;;;18.88;100.00
19748;BME280;10032;51.386;12.516;2022-08-14T04:29:54;99961.56;;;18.85;100.00
19748;BME280;10032;51.386;12.516;2022-08-14T04:32:21;99964.00;;;18.87;100.00
19748;BME280;10032;51.386;12.516;2022-08-14T04:34:50;99967.25;;;18.89;100.00
19748;BME280;10032;51.386;12.516;2022-08-14T04:37:19;99962.47;;;18.94;100.00
19748;BME280;10032;51.386;12.516;2022-08-14T04:40:03;99956.03;;;18.99;100.00
19748;BME280;10032;51.386;12.516;2022-08-14T04:42:48;99957.88;;;19.03;100.00
19748;BME280;10032;51.386;12.516;2022-08-14T04:45:32;99949.53;;;19.08;100.00
19748;BME280;10032;51.386;12.516;2022-08-14T04:48:09;99939.03;;;19.10;100.00
19748;BME280;10032;51.386;12.516;2022-08-14T04:50:45;99944.81;;;19.09;100.00
19748;BME280;10032;51.386;12.516;2022-08-14T04:53:17;99944.03;;;19.08;100.00
19748;BME280;10032;51.386;12.516;2022-08-14T04:55:45;99939.53;;;19.12;100.00
19748;BME280;10032;51.386;12.516;2022-08-14T04:58:17;99945.72;;;19.18;100.00
19748;BME280;10032;51.386;12.516;2022-08-14T05:00:43;99939.31;;;19.22;100.00
19748;BME280;10032;51.386;12.516;2022-08-14T05:03:09;99941.16;;;19.27;100.00
19748;BME280;10032;51.386;12.516;2022-08-14T05:05:35;99943.44;;;19.33;100.00
19748;BME280;10032;51.386;12.516;2022-08-14T05:08:10;99932.84;;;19.40;100.00
19748;BME280;10032;51.386;12.516;2022-08-14T05:10:41;99930.16;;;19.49;100.00
19748;BME280;10032;51.386;12.516;2022-08-14T05:13:08;99934.38;;;19.55;100.00
19748;BME280;10032;51.386;12.516;2022-08-14T05:15:36;99930.88;;;19.63;100.00
19748;BME280;10032;51.386;12.516;2022-08-14T05:18:07;99923.50;;;19.72;100.00
19748;BME280;10032;51.386;12.516;2022-08-14T05:20:45;99918.69;;;19.77;100.00
19748;BME280;10032;51.386;12.516;2022-08-14T05:23:12;99914.84;;;19.87;100.00
19748;BME280;10032;51.386;12.516;2022-08-14T05:25:38;99917.75;;;19.90;100.00
19748;BME280;10032;51.386;12.516;2022-08-14T05:28:21;99912.81;;;20.01;100.00
19748;BME280;10032;51.386;12.516;2022-08-14T05:30:59;99914.31;;;20.07;100.00
19748;BME280;10032;51.386;12.516;2022-08-14T05:33:27;99919.19;;;20.18;100.00
19748;BME280;10032;51.386;12.516;2022-08-14T05:35:54;99912.97;;;20.35;100.00
19748;BME280;10032;51.386;12.516;2022-08-14T05:38:27;99910.94;;;20.74;100.00
19748;BME280;10032;51.386;12.516;2022-08-14T05:40:54;99915.03;;;21.11;100.00
19748;BME280;10032;51.386;12.516;2022-08-14T05:43:21;99906.09;;;21.39;100.00
19748;BME280;10032;51.386;12.516;2022-08-14T05:45:47;99916.13;;;21.69;100.00
19748;BME280;10032;51.386;12.516;2022-08-14T05:48:13;99910.50;;;22.03;100.00
19748;BME280;10032;51.386;12.516;2022-08-14T05:50:40;99904.19;;;22.32;100.00
19748;BME280;10032;51.386;12.516;2022-08-14T05:53:06;99900.84;;;22.55;100.00
19748;BME280;10032;51.386;12.516;2022-08-14T05:55:32;99894.34;;;22.80;100.00
19748;BME280;10032;51.386;12.516;2022-08-14T05:58:06;99895.16;;;23.01;100.00
19748;BME280;10032;51.386;12.516;2022-08-14T06:00:37;99897.00;;;23.18;100.00
19748;BME280;10032;51.386;12.516;2022-08-14T06:03:05;99897.78;;;23.39;100.00
19748;BME280;10032;51.386;12.516;2022-08-14T06:05:30;99895.53;;;23.53;100.00
19748;BME280;10032;51.386;12.516;2022-08-14T06:07:59;99892.34;;;23.75;100.00
19748;BME280;10032;51.386;12.516;2022-08-14T06:10:27;99887.25;;;23.97;100.00
19748;BME280;10032;51.386;12.516;2022-08-14T06:12:53;99889.78;;;24.14;100.00
19748;BME280;10032;51.386;12.516;2022-08-14T06:15:19;99886.78;;;24.19;100.00
19748;BME280;10032;51.386;12.516;2022-08-14T06:17:51;99884.50;;;24.33;100.00
19748;BME280;10032;51.386;12.516;2022-08-14T06:20:18;99874.31;;;24.49;100.00
19748;BME280;10032;51.386;12.516;2022-08-14T06:22:44;99870.72;;;24.49;100.00
19748;BME280;10032;51.386;12.516;2022-08-14T06:25:12;99872.72;;;24.60;100.00
19748;BME280;10032;51.386;12.516;2022-08-14T06:27:39;99859.59;;;24.85;100.00
19748;BME280;10032;51.386;12.516;2022-08-14T06:30:07;99862.91;;;25.02;100.00
19748;BME280;10032;51.386;12.516;2022-08-14T06:32:33;99850.81;;;25.22;100.00
19748;BME280;10032;51.386;12.516;2022-08-14T06:34:59;99851.09;;;25.45;100.00
19748;BME280;10032;51.386;12.516;2022-08-14T06:37:24;99852.34;;;25.47;100.00
19748;BME280;10032;51.386;12.516;2022-08-14T06:39:51;99847.47;;;25.72;100.00
19748;BME280;10032;51.386;12.516;2022-08-14T06:42:17;99856.13;;;25.70;100.00
19748;BME280;10032;51.386;12.516;2022-08-14T06:44:42;99852.41;;;25.78;100.00
19748;BME280;10032;51.386;12.516;2022-08-14T06:47:09;99848.53;;;25.83;100.00
19748;BME280;10032;51.386;12.516;2022-08-14T06:49:36;99854.75;;;26.07;100.00
19748;BME280;10032;51.386;12.516;2022-08-14T06:52:02;99849.19;;;26.07;100.00
19748;BME280;10032;51.386;12.516;2022-08-14T06:54:27;99857.69;;;26.30;100.00
19748;BME280;10032;51.386;12.516;2022-08-14T06:56:53;99849.69;;;26.28;100.00
19748;BME280;10032;51.386;12.516;2022-08-14T06:59:18;99855.34;;;26.32;100.00
19748;BME280;10032;51.386;12.516;2022-08-14T07:01:44;99858.59;;;26.34;100.00
19748;BME280;10032;51.386;12.516;2022-08-14T07:04:28;99857.75;;;26.33;100.00
19748;BME280;10032;51.386;12.516;2022-08-14T07:07:12;99854.22;;;26.52;100.00
19748;BME280;10032;51.386;12.516;2022-08-14T07:09:37;99856.56;;;26.65;100.00
19748;BME280;10032;51.386;12.516;2022-08-14T07:12:03;99849.88;;;26.85;100.00
19748;BME280;10032;51.386;12.516;2022-08-14T07:14:28;99852.41;;;26.75;100.00
19748;BME280;10032;51.386;12.516;2022-08-14T07:16:54;99852.28;;;27.06;100.00
19748;BME280;10032;51.386;12.516;2022-08-14T07:19:19;99849.13;;;27.07;100.00
19748;BME280;10032;51.386;12.516;2022-08-14T07:21:44;99847.84;;;27.20;100.00
19748;BME280;10032;51.386;12.516;2022-08-14T07:24:10;99846.38;;;27.26;100.00
19748;BME280;10032;51.386;12.516;2022-08-14T07:26:38;99850.03;;;27.30;100.00
19748;BME280;10032;51.386;12.516;2022-08-14T07:29:04;99841.06;;;27.40;100.00
19748;BME280;10032;51.386;12.516;2022-08-14T07:31:29;99849.13;;;27.45;100.00
19748;BME280;10032;51.386;12.516;2022-08-14T07:33:55;99840.41;;;27.47;100.00
19748;BME280;10032;51.386;12.516;2022-08-14T07:36:21;99857.88;;;27.66;100.00
19748;BME280;10032;51.386;12.516;2022-08-14T07:38:46;99854.63;;;27.83;100.00
19748;BME280;10032;51.386;12.516;2022-08-14T07:41:12;99845.78;;;27.78;100.00
19748;BME280;10032;51.386;12.516;2022-08-14T07:43:38;99849.66;;;27.73;100.00
19748;BME280;10032;51.386;12.516;2022-08-14T07:46:04;99852.44;;;27.73;100.00
19748;BME280;10032;51.386;12.516;2022-08-14T07:48:30;99854.06;;;27.74;100.00
19748;BME280;10032;51.386;12.516;2022-08-14T07:50:55;99855.47;;;27.65;100.00
19748;BME280;10032;51.386;12.516;2022-08-14T07:53:21;99851.00;;;27.60;100.00
19748;BME280;10032;51.386;12.516;2022-08-14T07:55:47;99852.31;;;27.66;100.00
19748;BME280;10032;51.386;12.516;2022-08-14T07:58:14;99849.22;;;27.71;100.00
19748;BME280;10032;51.386;12.516;2022-08-14T08:00:40;99847.16;;;27.87;100.00
19748;BME280;10032;51.386;12.516;2022-08-14T08:03:07;99846.13;;;27.95;100.00
19748;BME280;10032;51.386;12.516;2022-08-14T08:05:37;99834.34;;;28.05;100.00
19748;BME280;10032;51.386;12.516;2022-08-14T08:08:04;99851.72;;;28.21;100.00
19748;BME280;10032;51.386;12.516;2022-08-14T08:10:31;99846.16;;;28.21;100.00
19748;BME280;10032;51.386;12.516;2022-08-14T08:15:31;99842.09;;;28.41;100.00
19748;BME280;10032;51.386;12.516;2022-08-14T08:17:58;99839.53;;;28.55;100.00
19748;BME280;10032;51.386;12.516;2022-08-14T08:20:26;99840.06;;;28.64;100.00
19748;BME280;10032;51.386;12.516;2022-08-14T08:22:54;99838.19;;;28.72;99.37
19748;BME280;10032;51.386;12.516;2022-08-14T08:25:21;99834.66;;;28.78;96.79
19748;BME280;10032;51.386;12.516;2022-08-14T08:28:00;99841.34;;;28.70;96.66
19748;BME280;10032;51.386;12.516;2022-08-14T08:30:29;99843.84;;;28.79;94.75
19748;BME280;10032;51.386;12.516;2022-08-14T08:32:56;99836.41;;;28.60;93.29
19748;BME280;10032;51.386;12.516;2022-08-14T08:35:25;99846.28;;;28.80;93.58
19748;BME280;10032;51.386;12.516;2022-08-14T08:37:52;99838.06;;;28.94;94.83
19748;BME280;10032;51.386;12.516;2022-08-14T08:40:27;99835.78;;;29.00;90.14
19748;BME280;10032;51.386;12.516;2022-08-14T08:42:53;99827.38;;;28.96;92.31
19748;BME280;10032;51.386;12.516;2022-08-14T08:45:20;99834.63;;;29.04;91.40
19748;BME280;10032;51.386;12.516;2022-08-14T08:47:47;99833.63;;;29.19;90.82
19748;BME280;10032;51.386;12.516;2022-08-14T08:50:20;99834.22;;;29.35;90.95
19748;BME280;10032;51.386;12.516;2022-08-14T08:52:50;99837.63;;;29.18;87.53
19748;BME280;10032;51.386;12.516;2022-08-14T08:55:26;99828.97;;;29.30;89.02
19748;BME280;10032;51.386;12.516;2022-08-14T08:58:01;99826.66;;;29.36;85.55
19748;BME280;10032;51.386;12.516;2022-08-14T09:00:29;99822.69;;;29.40;86.99
19748;BME280;10032;51.386;12.516;2022-08-14T09:05:32;99804.63;;;29.64;87.63
19748;BME280;10032;51.386;12.516;2022-08-14T09:08:15;99809.13;;;29.75;86.53
19748;BME280;10032;51.386;12.516;2022-08-14T09:10:41;99805.50;;;29.71;85.55
19748;BME280;10032;51.386;12.516;2022-08-14T09:13:08;99803.88;;;29.70;84.38
19748;BME280;10032;51.386;12.516;2022-08-14T09:15:38;99804.50;;;29.97;84.59
19748;BME280;10032;51.386;12.516;2022-08-14T09:18:04;99805.47;;;30.11;83.98
19748;BME280;10032;51.386;12.516;2022-08-14T09:20:30;99790.09;;;30.42;82.54
19748;BME280;10032;51.386;12.516;2022-08-14T09:22:57;99782.50;;;30.42;78.54
19748;BME280;10032;51.386;12.516;2022-08-14T09:25:23;99790.22;;;30.59;80.08
19748;BME280;10032;51.386;12.516;2022-08-14T09:27:48;99783.81;;;30.62;78.62
19748;BME280;10032;51.386;12.516;2022-08-14T09:30:14;99774.19;;;30.60;78.29
19748;BME280;10032;51.386;12.516;2022-08-14T09:38:27;99775.38;;;31.44;74.92
19748;BME280;10032;51.386;12.516;2022-08-14T09:40:58;99766.56;;;31.49;75.03
19748;BME280;10032;51.386;12.516;2022-08-14T09:46:09;99753.00;;;31.76;73.31
19748;BME280;10032;51.386;12.516;2022-08-14T09:48:35;99753.41;;;31.88;71.11
19748;BME280;10032;51.386;12.516;2022-08-14T09:51:02;99742.56;;;32.08;72.38
19748;BME280;10032;51.386;12.516;2022-08-14T09:53:43;99738.16;;;32.10;71.25
19748;BME280;10032;51.386;12.516;2022-08-14T09:56:13;99734.16;;;32.25;69.56
19748;BME280;10032;51.386;12.516;2022-08-14T09:58:41;99741.72;;;32.21;68.61
19748;BME280;10032;51.386;12.516;2022-08-14T10:03:36;99726.38;;;32.78;68.89
19748;BME280;10032;51.386;12.516;2022-08-14T10:08:40;99708.72;;;32.81;66.06
19748;BME280;10032;51.386;12.516;2022-08-14T10:11:27;99691.63;;;33.23;64.96
19748;BME280;10032;51.386;12.516;2022-08-14T10:14:09;99696.56;;;33.02;63.71
19748;BME280;10032;51.386;12.516;2022-08-14T10:16:41;99695.00;;;32.90;62.91
19748;BME280;10032;51.386;12.516;2022-08-14T10:19:09;99697.50;;;32.71;60.71
19748;BME280;10032;51.386;12.516;2022-08-14T10:21:37;99700.69;;;32.83;59.16
19748;BME280;10032;51.386;12.516;2022-08-14T10:24:03;99694.84;;;33.22;59.79
19748;BME280;10032;51.386;12.516;2022-08-14T10:26:32;99687.44;;;33.49;59.34
19748;BME280;10032;51.386;12.516;2022-08-14T10:29:07;99679.13;;;33.82;57.35
19748;BME280;10032;51.386;12.516;2022-08-14T10:31:35;99669.91;;;33.78;54.75
19748;BME280;10032;51.386;12.516;2022-08-14T10:34:06;99678.41;;;33.71;53.67
19748;BME280;10032;51.386;12.516;2022-08-14T10:36:33;99669.47;;;33.83;52.00
19748;BME280;10032;51.386;12.516;2022-08-14T10:39:05;99664.84;;;34.03;52.12
19748;BME280;10032;51.386;12.516;2022-08-14T10:41:42;99661.63;;;34.38;52.72
19748;BME280;10032;51.386;12.516;2022-08-14T10:44:13;99675.63;;;34.45;50.11
19748;BME280;10032;51.386;12.516;2022-08-14T10:46:57;99665.84;;;34.23;48.91
19748;BME280;10032;51.386;12.516;2022-08-14T10:49:28;99676.31;;;34.19;47.45
19748;BME280;10032;51.386;12.516;2022-08-14T10:52:03;99661.56;;;33.68;47.49
19748;BME280;10032;51.386;12.516;2022-08-14T10:57:24;99654.31;;;33.70;46.71
19748;BME280;10032;51.386;12.516;2022-08-14T10:59:58;99653.25;;;33.54;46.37
19748;BME280;10032;51.386;12.516;2022-08-14T11:07:29;99655.72;;;32.87;46.25
19748;BME280;10032;51.386;12.516;2022-08-14T11:09:57;99660.56;;;32.86;45.94
19748;BME280;10032;51.386;12.516;2022-08-14T11:12:24;99649.13;;;33.14;46.08
19748;BME280;10032;51.386;12.516;2022-08-14T11:14:52;99647.72;;;33.43;45.64
19748;BME280;10032;51.386;12.516;2022-08-14T11:17:19;99658.50;;;33.48;45.16
19748;BME280;10032;51.386;12.516;2022-08-14T11:19:45;99649.91;;;33.18;44.48
19748;BME280;10032;51.386;12.516;2022-08-14T11:22:11;99646.81;;;33.02;45.37
19748;BME280;10032;51.386;12.516;2022-08-14T11:24:41;99632.81;;;32.92;44.44
19748;BME280;10032;51.386;12.516;2022-08-14T11:27:08;99629.34;;;33.32;45.68
19748;BME280;10032;51.386;12.516;2022-08-14T11:29:37;99635.13;;;33.58;43.95
19748;BME280;10032;51.386;12.516;2022-08-14T11:32:06;99624.56;;;33.69;44.50
19748;BME280;10032;51.386;12.516;2022-08-14T11:34:35;99629.25;;;33.42;43.57
19748;BME280;10032;51.386;12.516;2022-08-14T11:37:11;99633.97;;;33.05;44.07
19748;BME280;10032;51.386;12.516;2022-08-14T11:39:37;99630.84;;;32.85;44.40
19748;BME280;10032;51.386;12.516;2022-08-14T11:42:07;99621.69;;;32.81;44.56
19748;BME280;10032;51.386;12.516;2022-08-14T11:44:43;99620.31;;;33.03;44.25
19748;BME280;10032;51.386;12.516;2022-08-14T11:47:10;99619.81;;;33.15;44.57
19748;BME280;10032;51.386;12.516;2022-08-14T11:49:43;99615.34;;;33.28;43.44
19748;BME280;10032;51.386;12.516;2022-08-14T11:52:08;99616.72;;;33.54;43.61
19748;BME280;10032;51.386;12.516;2022-08-14T11:54:34;99610.16;;;33.67;44.07
19748;BME280;10032;51.386;12.516;2022-08-14T11:57:00;99609.25;;;33.77;43.63
19748;BME280;10032;51.386;12.516;2022-08-14T11:59:25;99602.88;;;33.70;43.03
19748;BME280;10032;51.386;12.516;2022-08-14T12:01:53;99595.03;;;33.51;43.09
19748;BME280;10032;51.386;12.516;2022-08-14T12:04:19;99595.72;;;33.65;43.71
19748;BME280;10032;51.386;12.516;2022-08-14T12:06:53;99585.91;;;33.84;42.27
19748;BME280;10032;51.386;12.516;2022-08-14T12:09:31;99589.19;;;33.79;41.88
19748;BME280;10032;51.386;12.516;2022-08-14T12:11:56;99576.72;;;33.76;42.73
19748;BME280;10032;51.386;12.516;2022-08-14T12:14:22;99581.88;;;33.85;43.00
19748;BME280;10032;51.386;12.516;2022-08-14T12:16:59;99575.66;;;34.00;43.33
19748;BME280;10032;51.386;12.516;2022-08-14T12:19:24;99581.94;;;33.74;40.85
19748;BME280;10032;51.386;12.516;2022-08-14T12:21:56;99572.34;;;33.72;40.38
19748;BME280;10032;51.386;12.516;2022-08-14T12:24:27;99571.72;;;33.94;40.52
19748;BME280;10032;51.386;12.516;2022-08-14T12:26:54;99560.13;;;33.89;39.69
19748;BME280;10032;51.386;12.516;2022-08-14T12:29:19;99561.13;;;34.05;41.23
19748;BME280;10032;51.386;12.516;2022-08-14T12:31:56;99554.09;;;34.20;40.42
19748;BME280;10032;51.386;12.516;2022-08-14T12:34:30;99550.25;;;34.07;39.42
19748;BME280;10032;51.386;12.516;2022-08-14T12:37:06;99546.97;;;34.12;40.37
19748;BME280;10032;51.386;12.516;2022-08-14T12:39:33;99548.41;;;34.27;40.13
19748;BME280;10032;51.386;12.516;2022-08-14T12:41:59;99540.03;;;34.20;39.18
19748;BME280;10032;51.386;12.516;2022-08-14T12:44:37;99536.69;;;33.99;39.33
19748;BME280;10032;51.386;12.516;2022-08-14T12:47:13;99529.09;;;33.96;39.52
19748;BME280;10032;51.386;12.516;2022-08-14T12:49:52;99517.81;;;33.99;39.79
19748;BME280;10032;51.386;12.516;2022-08-14T12:52:28;99528.34;;;33.92;39.87
19748;BME280;10032;51.386;12.516;2022-08-14T12:54:57;99522.59;;;34.02;40.37
19748;BME280;10032;51.386;12.516;2022-08-14T12:57:36;99525.66;;;34.11;41.83
19748;BME280;10032;51.386;12.516;2022-08-14T13:02:36;99519.94;;;34.48;42.74
19748;BME280;10032;51.386;12.516;2022-08-14T13:05:02;99520.13;;;34.38;42.75
19748;BME280;10032;51.386;12.516;2022-08-14T13:07:28;99517.63;;;34.13;41.29
19748;BME280;10032;51.386;12.516;2022-08-14T13:09:55;99513.75;;;33.67;42.03
19748;BME280;10032;51.386;12.516;2022-08-14T13:12:23;99520.28;;;33.60;42.42
19748;BME280;10032;51.386;12.516;2022-08-14T13:14:53;99507.19;;;33.43;42.64
19748;BME280;10032;51.386;12.516;2022-08-14T13:17:21;99511.00;;;33.23;44.74
19748;BME280;10032;51.386;12.516;2022-08-14T13:19:47;99508.03;;;32.96;47.86
19748;BME280;10032;51.386;12.516;2022-08-14T13:22:13;99499.34;;;32.80;52.76